Terminal Aerodrome Forecast
Issued by NWS

Home | Current Version | Previous Version | Text Only | Print | Product List | Glossary On
Versions: 1 2 3 4 5 6 7 8 9 10 11 12 13 14 15 16 17 18
660
FTUS44 KLIX 172320
TAFMCB
TAF
KMCB 172320Z 1800/1824 23004KT P6SM SCT200
     FM181600 28007KT P6SM SCT040 PROB30 1817/1823 4SM TSRA
      BKN030CB=

USA.gov is the U.S. government's official web portal to all federal, state and local government web resources and services.